createdAt,value
2023-05-10T00:01:09.763Z,44.61
2023-05-10T00:03:41.200Z,44.76
2023-05-10T00:06:12.017Z,44.74
2023-05-10T00:08:42.819Z,44.80
2023-05-10T00:11:13.538Z,44.87
2023-05-10T00:13:44.175Z,44.82
2023-05-10T00:16:14.881Z,44.81
2023-05-10T00:18:45.664Z,44.93
2023-05-10T00:21:16.583Z,45.13
2023-05-10T00:23:47.174Z,45.11
2023-05-10T00:26:18.311Z,45.17
2023-05-10T00:28:49.453Z,45.13
2023-05-10T00:31:20.234Z,45.31
2023-05-10T00:33:50.839Z,45.29
2023-05-10T00:36:21.832Z,45.36
2023-05-10T00:38:52.506Z,45.43
2023-05-10T00:41:23.217Z,45.32
2023-05-10T00:43:54.140Z,45.48
2023-05-10T00:46:25.496Z,45.38
2023-05-10T00:48:56.759Z,45.34
2023-05-10T00:51:28.009Z,45.40
2023-05-10T00:53:59.253Z,45.44
2023-05-10T00:56:30.937Z,45.48
2023-05-10T00:59:01.900Z,45.47
2023-05-10T01:01:32.804Z,45.39
2023-05-10T01:04:04.170Z,45.43
2023-05-10T01:06:34.780Z,45.39
2023-05-10T01:09:05.366Z,45.40
2023-05-10T01:11:36.777Z,45.45
2023-05-10T01:14:08.271Z,45.44
2023-05-10T01:16:41.115Z,45.50
2023-05-10T01:19:28.363Z,45.53
2023-05-10T01:22:07.621Z,45.57
2023-05-10T01:25:15.253Z,45.53
2023-05-10T01:27:58.894Z,45.55
2023-05-10T01:31:01.159Z,45.59
2023-05-10T01:33:37.345Z,45.64
2023-05-10T01:36:26.965Z,45.73
2023-05-10T01:39:04.683Z,45.79
2023-05-10T01:41:42.825Z,45.82
2023-05-10T01:44:20.111Z,45.87
2023-05-10T01:46:59.495Z,45.95
2023-05-10T01:49:34.110Z,46.03
2023-05-10T01:52:11.427Z,46.03
2023-05-10T01:54:48.510Z,46.22
2023-05-10T01:57:22.402Z,46.25
2023-05-10T01:59:55.179Z,46.31
2023-05-10T02:02:27.774Z,46.36
2023-05-10T02:04:58.648Z,46.38
2023-05-10T02:07:30.787Z,46.46
2023-05-10T02:10:02.747Z,46.57
2023-05-10T02:12:37.275Z,46.60
2023-05-10T02:15:10.782Z,46.76
2023-05-10T02:17:44.386Z,46.86
2023-05-10T02:20:18.209Z,46.91
2023-05-10T02:22:51.316Z,46.99
2023-05-10T02:25:24.112Z,47.08
2023-05-10T02:27:56.611Z,47.12
2023-05-10T02:30:26.492Z,47.23
2023-05-10T02:32:58.230Z,47.30
2023-05-10T02:35:30.315Z,47.44
2023-05-10T02:38:03.108Z,47.58
2023-05-10T02:40:38.168Z,47.67
2023-05-10T02:43:11.491Z,47.69
2023-05-10T02:45:43.814Z,47.74
2023-05-10T02:48:14.764Z,47.93
2023-05-10T02:50:52.470Z,47.89
2023-05-10T02:53:32.871Z,48.06
2023-05-10T02:56:08.074Z,48.17
2023-05-10T02:58:38.823Z,48.22
2023-05-10T03:01:09.850Z,48.34
2023-05-10T03:03:40.588Z,48.36
2023-05-10T03:06:12.498Z,48.49
2023-05-10T03:08:43.378Z,48.49
2023-05-10T03:11:31.063Z,48.53
2023-05-10T03:14:13.091Z,48.63
2023-05-10T03:16:47.880Z,48.75
2023-05-10T03:19:25.004Z,48.71
2023-05-10T03:22:00.802Z,48.82
2023-05-10T03:24:35.221Z,48.90
2023-05-10T03:27:08.149Z,48.90
2023-05-10T03:29:40.780Z,48.99
2023-05-10T03:32:11.864Z,49.01
2023-05-10T03:34:46.389Z,49.11
2023-05-10T03:37:17.145Z,49.08
2023-05-10T03:39:47.769Z,49.14
2023-05-10T03:42:19.228Z,49.15
2023-05-10T03:44:50.984Z,49.15
2023-05-10T03:47:21.611Z,49.20
2023-05-10T03:49:52.445Z,49.21
2023-05-10T03:52:23.273Z,49.38
2023-05-10T03:54:53.912Z,49.35
2023-05-10T03:57:24.944Z,49.30
2023-05-10T03:59:55.886Z,49.34
2023-05-10T04:02:27.896Z,49.44
2023-05-10T04:04:58.806Z,49.43
2023-05-10T04:07:30.283Z,49.54
2023-05-10T04:10:01.117Z,49.47
2023-05-10T04:12:31.804Z,49.50
2023-05-10T04:15:02.716Z,49.50
2023-05-10T04:17:33.590Z,49.51
2023-05-10T04:20:05.073Z,49.62
2023-05-10T04:22:35.912Z,49.51
2023-05-10T04:25:08.189Z,49.53
2023-05-10T04:27:38.982Z,49.66
2023-05-10T04:30:11.623Z,49.50
2023-05-10T04:32:42.405Z,49.49
2023-05-10T04:35:15.794Z,49.43
2023-05-10T04:37:46.459Z,49.27
2023-05-10T04:40:17.729Z,48.82
2023-05-10T04:42:48.822Z,48.03
2023-05-10T04:45:19.717Z,47.47
2023-05-10T04:47:50.413Z,46.72
2023-05-10T04:50:21.218Z,45.86
2023-05-10T04:52:53.237Z,45.08
2023-05-10T04:55:24.205Z,44.36
2023-05-10T04:57:56.187Z,43.71
2023-05-10T05:00:27.137Z,43.18
2023-05-10T05:02:57.859Z,42.35
2023-05-10T05:05:28.753Z,41.67
2023-05-10T05:07:59.458Z,41.21
2023-05-10T05:10:30.171Z,40.52
2023-05-10T05:13:00.852Z,40.26
2023-05-10T05:15:32.078Z,39.88
2023-05-10T05:18:02.888Z,39.41
2023-05-10T05:20:35.647Z,39.06
2023-05-10T05:23:06.529Z,38.70
2023-05-10T05:25:37.719Z,38.32
2023-05-10T05:28:08.551Z,38.04
2023-05-10T05:30:39.141Z,37.69
2023-05-10T05:33:09.846Z,37.43
2023-05-10T05:35:40.622Z,37.33
2023-05-10T05:38:11.219Z,36.85
2023-05-10T05:40:41.957Z,36.19
2023-05-10T05:43:12.749Z,36.11
2023-05-10T05:45:43.381Z,35.92
2023-05-10T05:48:14.193Z,35.74
2023-05-10T05:50:44.916Z,35.73
2023-05-10T05:53:15.700Z,35.61
2023-05-10T05:55:55.240Z,35.68
2023-05-10T05:58:27.631Z,35.27
2023-05-10T06:00:58.321Z,35.12
2023-05-10T06:03:29.132Z,34.78
2023-05-10T06:05:59.882Z,34.54
2023-05-10T06:08:30.521Z,34.65
2023-05-10T06:11:01.266Z,34.27
2023-05-10T06:13:33.794Z,34.28
2023-05-10T06:16:05.091Z,33.98
2023-05-10T06:18:35.867Z,33.69
2023-05-10T06:21:06.798Z,33.47
2023-05-10T06:23:37.954Z,33.60
2023-05-10T06:26:08.785Z,33.30
2023-05-10T06:28:40.112Z,33.28
2023-05-10T06:31:12.784Z,33.21
2023-05-10T06:33:43.430Z,33.11
2023-05-10T06:36:14.351Z,33.40
2023-05-10T06:38:45.202Z,33.29
2023-05-10T06:41:15.874Z,33.57
2023-05-10T06:43:46.635Z,33.67
2023-05-10T06:46:17.409Z,32.80
2023-05-10T06:48:48.230Z,32.78
2023-05-10T06:51:19.300Z,32.56
2023-05-10T06:53:49.997Z,32.55
2023-05-10T06:56:22.498Z,32.87
2023-05-10T06:58:53.778Z,32.87
2023-05-10T07:01:24.761Z,32.64
2023-05-10T07:03:55.738Z,33.02
2023-05-10T07:06:33.289Z,32.62
2023-05-10T07:09:04.728Z,32.52
2023-05-10T07:11:35.420Z,32.49
2023-05-10T07:14:06.151Z,32.20
2023-05-10T07:16:37.390Z,31.83
2023-05-10T07:19:08.302Z,32.68
2023-05-10T07:21:41.359Z,32.83
2023-05-10T07:24:12.167Z,32.43
2023-05-10T07:26:43.035Z,32.04
2023-05-10T07:29:14.016Z,32.36
2023-05-10T07:31:44.625Z,32.31
2023-05-10T07:34:15.400Z,32.30
2023-05-10T07:36:46.038Z,32.28
2023-05-10T07:39:26.550Z,31.88
2023-05-10T07:41:58.193Z,31.90
2023-05-10T07:44:28.911Z,32.04
2023-05-10T07:46:59.544Z,31.86
2023-05-10T07:49:30.191Z,32.41
2023-05-10T07:52:01.138Z,32.43
2023-05-10T07:54:31.823Z,32.08
2023-05-10T07:57:03.513Z,31.99
2023-05-10T07:59:34.506Z,31.84
2023-05-10T08:02:05.267Z,31.81
2023-05-10T08:04:35.970Z,31.92
2023-05-10T08:07:06.985Z,32.30
2023-05-10T08:09:37.831Z,31.67
2023-05-10T08:12:09.514Z,32.09
2023-05-10T08:14:40.249Z,31.89
2023-05-10T08:17:11.054Z,32.17
2023-05-10T08:19:41.640Z,32.22
2023-05-10T08:22:12.389Z,32.51
2023-05-10T08:24:43.058Z,32.09
2023-05-10T08:27:13.687Z,31.95
2023-05-10T08:29:50.088Z,32.07
2023-05-10T08:32:21.487Z,32.03
2023-05-10T08:34:52.154Z,31.65
2023-05-10T08:37:22.776Z,31.62
2023-05-10T08:39:53.439Z,31.94
2023-05-10T08:42:28.062Z,32.04
2023-05-10T08:44:59.491Z,32.41
2023-05-10T08:47:31.760Z,32.74
2023-05-10T08:50:04.763Z,32.74
2023-05-10T08:52:40.872Z,32.44
2023-05-10T08:55:12.850Z,32.92
2023-05-10T08:57:41.878Z,32.67
2023-05-10T09:00:15.504Z,32.84
2023-05-10T09:02:47.017Z,33.14
2023-05-10T09:05:18.899Z,33.22
2023-05-10T09:07:50.028Z,33.87
2023-05-10T09:10:21.598Z,32.99
2023-05-10T09:12:53.374Z,33.15
2023-05-10T09:15:24.461Z,33.26
2023-05-10T09:17:56.588Z,33.36
2023-05-10T09:20:27.912Z,32.91
2023-05-10T09:22:59.020Z,33.50
2023-05-10T09:25:29.947Z,33.07
2023-05-10T09:28:00.713Z,33.33
2023-05-10T09:30:32.982Z,33.75
2023-05-10T09:33:04.495Z,33.27
2023-05-10T09:35:37.100Z,33.23
2023-05-10T09:38:08.029Z,33.07
2023-05-10T09:40:38.891Z,32.65
2023-05-10T09:43:11.901Z,32.96
2023-05-10T09:45:44.829Z,32.89
2023-05-10T09:48:15.604Z,32.64
2023-05-10T09:50:46.415Z,32.86
2023-05-10T09:53:18.783Z,33.00
2023-05-10T09:55:51.517Z,32.79
2023-05-10T09:58:22.134Z,33.03
2023-05-10T10:00:53.396Z,33.55
2023-05-10T10:03:25.316Z,33.26
2023-05-10T10:05:56.982Z,33.45
2023-05-10T10:08:28.382Z,32.86
2023-05-10T10:10:59.171Z,32.68
2023-05-10T10:13:29.773Z,33.31
2023-05-10T10:16:00.748Z,33.19
2023-05-10T10:18:32.664Z,32.93
2023-05-10T10:21:02.010Z,33.15
2023-05-10T10:23:32.583Z,33.51
2023-05-10T10:26:04.163Z,33.09
2023-05-10T10:28:54.067Z,33.20
2023-05-10T10:31:27.547Z,32.97
2023-05-10T10:34:07.877Z,33.88
2023-05-10T10:36:44.341Z,34.17
2023-05-10T10:39:15.938Z,34.06
2023-05-10T10:41:54.892Z,33.97
2023-05-10T10:44:39.009Z,33.94
2023-05-10T10:47:25.939Z,34.09
2023-05-10T10:50:07.989Z,34.44
2023-05-10T10:52:39.945Z,34.96
2023-05-10T10:55:13.454Z,35.22
2023-05-10T10:58:01.151Z,34.87
2023-05-10T11:00:34.122Z,34.60
2023-05-10T11:03:08.690Z,34.29
2023-05-10T11:05:44.674Z,33.90
2023-05-10T11:08:20.983Z,34.52
2023-05-10T11:11:07.826Z,34.67
2023-05-10T11:13:42.820Z,34.61
2023-05-10T11:16:29.749Z,34.57
2023-05-10T11:19:05.497Z,34.32
2023-05-10T11:21:46.280Z,34.67
2023-05-10T11:24:20.002Z,34.66
2023-05-10T11:26:53.436Z,35.15
2023-05-10T11:29:24.236Z,35.77
2023-05-10T11:31:56.280Z,35.56
2023-05-10T11:34:32.210Z,35.78
2023-05-10T11:37:03.332Z,35.25
2023-05-10T11:39:34.605Z,34.74
2023-05-10T11:42:05.493Z,34.69
2023-05-10T11:44:36.309Z,34.96
2023-05-10T11:47:07.361Z,34.63
2023-05-10T11:49:38.151Z,34.53
2023-05-10T11:52:09.935Z,34.56
2023-05-10T11:54:46.688Z,34.22
2023-05-10T11:57:17.349Z,34.39
2023-05-10T11:59:48.017Z,34.62
2023-05-10T12:02:18.911Z,35.33
2023-05-10T12:04:50.909Z,35.20
2023-05-10T12:07:21.862Z,35.60
2023-05-10T12:12:49.116Z,35.20
2023-05-10T12:15:24.473Z,34.80
2023-05-10T12:17:55.833Z,35.06
2023-05-10T12:20:29.502Z,34.53
2023-05-10T12:23:03.009Z,34.61
2023-05-10T12:25:36.336Z,34.92
2023-05-10T12:28:09.469Z,34.98
2023-05-10T12:30:40.891Z,34.88
2023-05-10T12:33:17.736Z,34.18
2023-05-10T12:35:49.764Z,34.18
2023-05-10T12:38:31.963Z,34.21
2023-05-10T12:41:04.565Z,35.02
2023-05-10T12:43:36.782Z,34.99
2023-05-10T12:46:11.919Z,35.11
2023-05-10T12:48:44.523Z,34.60
2023-05-10T12:51:18.115Z,34.93
2023-05-10T12:53:49.726Z,35.52
2023-05-10T12:56:21.197Z,35.22
2023-05-10T12:58:51.894Z,35.37
2023-05-10T13:01:23.003Z,35.41
2023-05-10T13:03:53.898Z,35.34
2023-05-10T13:06:24.646Z,35.61
2023-05-10T13:08:55.316Z,35.53
2023-05-10T13:11:26.142Z,35.46
2023-05-10T13:13:56.904Z,36.10
2023-05-10T13:16:27.825Z,36.23
2023-05-10T13:18:59.453Z,36.52
2023-05-10T13:21:30.369Z,36.08
2023-05-10T13:24:01.370Z,36.46
2023-05-10T13:26:32.140Z,35.95
2023-05-10T13:29:02.697Z,35.76
2023-05-10T13:31:33.492Z,36.28
2023-05-10T13:34:04.434Z,35.83
2023-05-10T13:36:35.095Z,36.60
2023-05-10T13:39:06.353Z,35.89
2023-05-10T13:41:37.753Z,35.83
2023-05-10T13:44:08.623Z,36.93
2023-05-10T13:46:39.930Z,37.35
2023-05-10T13:49:11.016Z,36.56
2023-05-10T13:51:41.747Z,36.71
2023-05-10T13:54:13.553Z,37.13
2023-05-10T13:56:46.005Z,37.29
2023-05-10T13:59:17.213Z,37.82
2023-05-10T14:01:48.435Z,37.89
2023-05-10T14:04:19.219Z,38.11
2023-05-10T14:06:49.883Z,37.66
2023-05-10T14:09:20.812Z,39.47
2023-05-10T14:11:52.092Z,41.09
2023-05-10T14:14:22.880Z,42.01
2023-05-10T14:16:53.641Z,42.85
2023-05-10T14:19:24.280Z,42.24
2023-05-10T14:21:54.897Z,42.51
2023-05-10T14:24:25.864Z,43.55
2023-05-10T14:26:56.437Z,43.76
2023-05-10T14:29:27.096Z,43.72
2023-05-10T14:31:58.117Z,43.63
2023-05-10T14:34:28.820Z,44.18
2023-05-10T14:36:59.637Z,44.23
2023-05-10T14:39:31.098Z,44.73
2023-05-10T14:42:01.767Z,44.43
2023-05-10T14:44:32.533Z,44.44
2023-05-10T14:47:03.506Z,43.94
2023-05-10T14:49:34.311Z,44.49
2023-05-10T14:52:07.140Z,44.69
2023-05-10T14:54:37.884Z,44.57
2023-05-10T14:57:08.921Z,44.52
2023-05-10T14:59:40.326Z,45.11
2023-05-10T15:02:12.489Z,45.46
2023-05-10T15:04:44.600Z,45.62
2023-05-10T15:07:17.585Z,45.88
2023-05-10T15:09:48.402Z,46.13
2023-05-10T15:12:19.280Z,46.63
2023-05-10T15:14:49.925Z,46.66
2023-05-10T15:17:20.562Z,47.07
2023-05-10T15:19:51.480Z,47.32
2023-05-10T15:22:22.261Z,47.47
2023-05-10T15:24:53.087Z,47.63
2023-05-10T15:27:23.793Z,47.77
2023-05-10T15:29:55.022Z,48.22
2023-05-10T15:32:25.823Z,48.09
2023-05-10T15:34:56.525Z,48.26
2023-05-10T15:37:27.293Z,48.68
2023-05-10T15:40:04.487Z,48.86
2023-05-10T15:42:36.438Z,49.28
2023-05-10T15:45:08.851Z,49.60
2023-05-10T15:47:40.664Z,49.81
2023-05-10T15:50:13.393Z,49.87
2023-05-10T15:52:44.175Z,49.85
2023-05-10T15:55:15.388Z,49.94
2023-05-10T15:57:47.018Z,50.10
2023-05-10T16:00:19.137Z,50.05
2023-05-10T16:02:48.232Z,50.26
2023-05-10T16:05:19.667Z,50.14
2023-05-10T16:07:50.458Z,50.17
2023-05-10T16:10:21.416Z,50.67
2023-05-10T16:12:52.199Z,50.60
2023-05-10T16:15:22.833Z,50.58
2023-05-10T16:17:53.864Z,50.93
2023-05-10T16:20:25.262Z,50.57
2023-05-10T16:22:55.899Z,50.66
2023-05-10T16:25:26.830Z,50.75
2023-05-10T16:27:57.579Z,50.58
2023-05-10T16:30:30.318Z,50.60
2023-05-10T16:33:02.490Z,50.54
2023-05-10T16:35:33.512Z,50.43
2023-05-10T16:38:04.325Z,50.51
2023-05-10T16:40:35.235Z,50.39
2023-05-10T16:43:05.970Z,50.22
2023-05-10T16:45:36.686Z,50.41
2023-05-10T16:48:08.081Z,50.35
2023-05-10T16:50:38.797Z,50.36
2023-05-10T16:53:10.231Z,50.36
2023-05-10T16:55:40.983Z,50.49
2023-05-10T16:58:11.907Z,50.42
2023-05-10T17:00:42.994Z,50.34
2023-05-10T17:03:13.967Z,50.26
2023-05-10T17:05:44.888Z,50.58
2023-05-10T17:08:15.805Z,50.35
2023-05-10T17:10:46.617Z,50.51
2023-05-10T17:13:18.565Z,50.74
2023-05-10T17:15:49.693Z,50.75
2023-05-10T17:18:20.552Z,50.96
2023-05-10T17:20:51.725Z,51.19
2023-05-10T17:23:22.348Z,51.19
2023-05-10T17:25:52.991Z,51.06
2023-05-10T17:28:23.644Z,51.08
2023-05-10T17:30:59.661Z,51.27
2023-05-10T17:33:30.432Z,51.37
2023-05-10T17:36:01.245Z,51.74
2023-05-10T17:38:32.116Z,51.90
2023-05-10T17:41:02.993Z,52.23
2023-05-10T17:43:33.675Z,52.67
2023-05-10T17:46:04.667Z,53.19
2023-05-10T17:48:36.906Z,53.78
2023-05-10T17:51:06.565Z,54.04
2023-05-10T17:53:37.329Z,54.45
2023-05-10T17:56:09.614Z,54.63
2023-05-10T17:58:40.306Z,54.70
2023-05-10T18:01:11.380Z,54.98
2023-05-10T18:03:42.286Z,55.27
2023-05-10T18:06:13.184Z,55.33
2023-05-10T18:08:44.344Z,55.76
2023-05-10T18:11:15.011Z,55.58
2023-05-10T18:13:45.717Z,55.67
2023-05-10T18:16:16.500Z,55.68
2023-05-10T18:18:47.198Z,55.75
2023-05-10T18:21:18.233Z,55.60
2023-05-10T18:23:48.909Z,55.60
2023-05-10T18:26:19.614Z,55.72
2023-05-10T18:28:50.333Z,55.79
2023-05-10T18:31:21.419Z,55.87
2023-05-10T18:33:53.003Z,55.83
2023-05-10T18:36:23.761Z,55.98
2023-05-10T18:38:57.557Z,55.86
2023-05-10T18:41:28.647Z,55.89
2023-05-10T18:43:59.308Z,56.01
2023-05-10T18:46:30.386Z,56.05
2023-05-10T18:49:02.561Z,55.95
2023-05-10T18:51:33.301Z,55.83
2023-05-10T18:54:04.528Z,55.92
2023-05-10T18:56:35.225Z,56.00
2023-05-10T18:59:06.044Z,56.17
2023-05-10T19:01:36.836Z,56.17
2023-05-10T19:04:08.519Z,56.21
2023-05-10T19:06:41.551Z,56.42
2023-05-10T19:09:12.226Z,56.65
2023-05-10T19:11:43.376Z,56.88
2023-05-10T19:14:14.123Z,56.98
2023-05-10T19:16:44.852Z,57.06
2023-05-10T19:19:15.637Z,57.03
2023-05-10T19:21:46.246Z,57.21
2023-05-10T19:24:17.913Z,57.37
2023-05-10T19:26:49.404Z,57.60
2023-05-10T19:29:20.018Z,57.74
2023-05-10T19:31:52.463Z,58.17
2023-05-10T19:34:23.483Z,58.29
2023-05-10T19:36:54.499Z,58.36
2023-05-10T19:39:25.438Z,58.83
2023-05-10T19:41:56.056Z,58.95
2023-05-10T19:44:26.795Z,59.09
2023-05-10T19:46:59.088Z,59.18
2023-05-10T19:49:30.187Z,59.16
2023-05-10T19:52:00.899Z,59.14
2023-05-10T19:54:31.575Z,59.31
2023-05-10T19:57:02.274Z,59.41
2023-05-10T19:59:33.036Z,59.40
2023-05-10T20:02:04.190Z,59.60
2023-05-10T20:04:35.044Z,59.75
2023-05-10T20:07:05.638Z,59.76
2023-05-10T20:09:36.268Z,59.80
2023-05-10T20:12:07.077Z,59.88
2023-05-10T20:14:37.785Z,60.03
2023-05-10T20:17:08.995Z,60.27
2023-05-10T20:19:39.864Z,60.63
2023-05-10T20:22:11.017Z,60.81
2023-05-10T20:24:41.644Z,60.99
2023-05-10T20:27:12.351Z,60.92
2023-05-10T20:29:43.245Z,61.08
2023-05-10T20:32:14.075Z,61.29
2023-05-10T20:34:44.958Z,61.55
2023-05-10T20:37:15.588Z,61.64
2023-05-10T20:39:48.401Z,61.81
2023-05-10T20:42:20.618Z,61.97
2023-05-10T20:44:51.751Z,61.98
2023-05-10T20:47:24.054Z,61.97
2023-05-10T20:49:53.173Z,62.22
2023-05-10T20:52:24.655Z,62.23
2023-05-10T20:54:55.589Z,62.28
2023-05-10T20:57:26.287Z,62.48
2023-05-10T20:59:57.564Z,62.59
2023-05-10T21:02:28.265Z,62.94
2023-05-10T21:04:59.103Z,62.96
2023-05-10T21:07:32.290Z,63.16
2023-05-10T21:10:03.226Z,63.59
2023-05-10T21:12:34.420Z,63.60
2023-05-10T21:15:07.351Z,63.83
2023-05-10T21:17:38.111Z,63.88
2023-05-10T21:20:11.213Z,63.95
2023-05-10T21:22:41.933Z,64.82
2023-05-10T21:25:13.636Z,64.54
2023-05-10T21:27:44.254Z,64.81
2023-05-10T21:30:15.845Z,64.98
2023-05-10T21:32:46.997Z,65.38
2023-05-10T21:35:17.667Z,65.61
2023-05-10T21:37:48.354Z,65.55
2023-05-10T21:40:19.866Z,65.65
2023-05-10T21:42:50.931Z,65.92
2023-05-10T21:45:22.557Z,65.79
2023-05-10T21:47:53.131Z,66.00
2023-05-10T21:50:23.975Z,65.89
2023-05-10T21:52:54.596Z,65.98
2023-05-10T21:55:25.553Z,66.00
2023-05-10T21:57:56.288Z,66.21
2023-05-10T22:00:27.005Z,66.23
2023-05-10T22:02:57.726Z,66.39
2023-05-10T22:05:28.642Z,66.36
2023-05-10T22:07:59.386Z,66.44
2023-05-10T22:10:30.078Z,66.29
2023-05-10T22:13:00.823Z,66.25
2023-05-10T22:15:34.220Z,66.10
2023-05-10T22:18:06.949Z,66.41
2023-05-10T22:20:37.814Z,66.39
2023-05-10T22:23:08.443Z,66.66
2023-05-10T22:25:39.084Z,66.66
2023-05-10T22:28:09.711Z,66.77
2023-05-10T22:30:40.345Z,66.66
2023-05-10T22:33:11.054Z,66.95
2023-05-10T22:35:41.729Z,67.08
2023-05-10T22:38:12.708Z,67.04
2023-05-10T22:40:44.035Z,67.05
2023-05-10T22:43:14.691Z,67.15
2023-05-10T22:45:45.775Z,67.16
2023-05-10T22:48:17.153Z,67.17
2023-05-10T22:50:47.757Z,67.17
2023-05-10T22:53:18.365Z,67.32
2023-05-10T22:55:49.253Z,67.11
2023-05-10T22:58:20.618Z,67.15
2023-05-10T23:00:51.319Z,67.08
2023-05-10T23:03:22.176Z,67.21
2023-05-10T23:05:52.906Z,67.06
2023-05-10T23:08:23.805Z,67.07
2023-05-10T23:10:54.478Z,67.22
2023-05-10T23:13:25.128Z,67.15
2023-05-10T23:15:55.894Z,67.23
2023-05-10T23:18:26.754Z,67.24
2023-05-10T23:20:57.592Z,67.35
2023-05-10T23:23:28.272Z,67.41
2023-05-10T23:25:59.057Z,67.44
2023-05-10T23:28:29.771Z,67.34
2023-05-10T23:31:00.830Z,67.31
2023-05-10T23:33:31.979Z,67.29
2023-05-10T23:36:02.838Z,67.30
2023-05-10T23:38:33.467Z,67.42
2023-05-10T23:41:04.559Z,67.43
2023-05-10T23:43:35.304Z,67.56
2023-05-10T23:46:06.674Z,67.61
2023-05-10T23:48:37.369Z,67.72
2023-05-10T23:51:08.423Z,67.77
2023-05-10T23:53:39.105Z,67.83
2023-05-10T23:56:09.823Z,67.91
2023-05-10T23:58:40.425Z,67.90
